Time;durP1;ratioP1;P1;durP2;ratioP2;P2;SDS_P1;SDS_P2;PMS_P1;PMS_P2;Temp;Humidity;BMP_temperature;BMP_pressure;BME280_temperature;BME280_humidity;BME280_pressure;Samples;Min_cycle;Max_cycle;Signal;HPM_P1;HPM_P2
2021/01/30 00:00:08;;;;;;;20.83;5.20;;;4.80;99.90;;;;;;5031651;27;39381;-73
2021/01/30 00:02:34;;;;;;;14.20;3.90;;;4.80;99.90;;;;;;5046620;28;38979;-73
2021/01/30 00:05:01;;;;;;;20.67;3.70;;;4.70;99.90;;;;;;5043386;28;39454;-73
2021/01/30 00:07:27;;;;;;;12.80;3.53;;;4.60;99.90;;;;;;5032174;28;38338;-73
2021/01/30 00:09:53;;;;;;;11.60;3.60;;;4.60;99.90;;;;;;5031114;28;37857;-73
2021/01/30 00:12:19;;;;;;;16.93;4.40;;;4.50;99.90;;;;;;5034093;28;37375;-73
2021/01/30 00:14:46;;;;;;;20.43;4.87;;;4.40;99.90;;;;;;5049459;28;37361;-73
2021/01/30 00:17:12;;;;;;;16.53;5.57;;;4.40;99.90;;;;;;5034267;28;39270;-73
2021/01/30 00:19:39;;;;;;;13.13;5.30;;;4.40;99.90;;;;;;5065513;28;36718;-72
2021/01/30 00:22:09;;;;;;;17.70;5.07;;;4.40;99.90;;;;;;5031729;28;35314;-73
2021/01/30 00:24:42;;;;;;;18.87;6.17;;;4.30;99.90;;;;;;5046517;28;39194;-73
2021/01/30 00:27:11;;;;;;;18.73;6.47;;;4.30;99.90;;;;;;5061199;28;38890;-73
2021/01/30 00:29:39;;;;;;;14.53;5.60;;;4.20;99.90;;;;;;5047673;28;38156;-74
2021/01/30 00:32:05;;;;;;;14.90;5.67;;;4.20;99.90;;;;;;5034504;27;36910;-74
2021/01/30 00:34:33;;;;;;;16.67;4.57;;;4.10;99.90;;;;;;5035741;28;38712;-73
2021/01/30 00:37:14;;;;;;;9.93;4.07;;;4.00;99.90;;;;;;5038112;27;38226;-75
2021/01/30 00:39:40;;;;;;;9.90;5.00;;;3.90;99.90;;;;;;5029873;28;47352;-73
2021/01/30 00:42:07;;;;;;;13.23;5.17;;;3.80;99.90;;;;;;5035456;28;37346;-74
2021/01/30 00:44:34;;;;;;;12.53;5.20;;;3.60;99.90;;;;;;5060872;28;39524;-74
2021/01/30 00:47:00;;;;;;;14.90;5.90;;;3.60;99.90;;;;;;5032690;28;38670;-74
2021/01/30 00:49:27;;;;;;;13.67;6.17;;;3.50;99.90;;;;;;5011484;28;46837;-74
2021/01/30 00:51:53;;;;;;;16.43;6.93;;;3.60;99.90;;;;;;5012941;28;37023;-73
2021/01/30 00:54:19;;;;;;;12.83;5.77;;;3.50;99.90;;;;;;5023107;28;37571;-73
2021/01/30 00:56:49;;;;;;;9.90;5.57;;;3.40;99.90;;;;;;5029929;28;37021;-74
2021/01/30 00:59:16;;;;;;;12.13;6.13;;;3.30;99.90;;;;;;5010251;28;38760;-74
2021/01/30 01:01:42;;;;;;;13.43;6.50;;;3.30;99.90;;;;;;5010339;28;38971;-73
2021/01/30 01:04:09;;;;;;;13.17;7.53;;;3.40;99.90;;;;;;5007177;28;40152;-73
2021/01/30 01:06:35;;;;;;;12.77;7.00;;;3.30;99.90;;;;;;5008949;28;38426;-74
2021/01/30 01:09:04;;;;;;;14.73;7.57;;;3.30;99.90;;;;;;5011193;28;38660;-73
2021/01/30 01:11:30;;;;;;;12.17;8.03;;;3.40;99.90;;;;;;5015661;28;36823;-73
2021/01/30 01:13:56;;;;;;;13.53;8.00;;;3.40;99.90;;;;;;5009385;28;40813;-74
2021/01/30 01:16:22;;;;;;;17.80;8.63;;;3.30;99.90;;;;;;5010911;28;38861;-73
2021/01/30 01:18:48;;;;;;;14.07;8.37;;;3.30;99.90;;;;;;5010436;28;38510;-73
2021/01/30 01:21:15;;;;;;;18.27;9.17;;;3.30;99.90;;;;;;5007764;28;38636;-73
2021/01/30 01:23:42;;;;;;;11.07;7.73;;;3.30;99.90;;;;;;5006093;28;39546;-73
2021/01/30 01:26:10;;;;;;;13.53;7.33;;;3.30;99.90;;;;;;5003313;28;39661;-73
2021/01/30 01:28:36;;;;;;;14.90;8.20;;;3.30;99.90;;;;;;5024220;28;39187;-74
2021/01/30 01:31:04;;;;;;;9.03;6.23;;;3.30;99.90;;;;;;5017158;28;37723;-74
2021/01/30 01:33:30;;;;;;;15.93;6.17;;;3.20;99.90;;;;;;5013283;28;38541;-74
2021/01/30 01:35:56;;;;;;;8.40;4.70;;;3.20;99.90;;;;;;5015688;28;38168;-73
2021/01/30 01:38:23;;;;;;;15.10;5.57;;;3.10;99.90;;;;;;5014052;28;37990;-74
2021/01/30 01:40:49;;;;;;;10.13;3.87;;;3.10;99.90;;;;;;5031631;28;37817;-73
2021/01/30 01:43:24;;;;;;;9.43;4.17;;;3.10;99.90;;;;;;5026773;28;39479;-74
2021/01/30 01:46:26;;;;;;;11.10;3.60;;;3.10;99.90;;;;;;5024383;28;38510;-73
2021/01/30 01:49:05;;;;;;;6.00;3.47;;;3.00;99.90;;;;;;5033170;28;46456;-73
2021/01/30 01:51:47;;;;;;;9.57;3.97;;;3.10;99.90;;;;;;5017432;28;47105;-73
2021/01/30 01:54:20;;;;;;;11.87;3.97;;;3.10;99.90;;;;;;5008598;28;36924;-74
2021/01/30 01:56:51;;;;;;;9.27;4.47;;;3.10;99.90;;;;;;5005826;28;38094;-73
2021/01/30 01:59:19;;;;;;;7.97;3.83;;;3.10;99.90;;;;;;5006061;28;38861;-75
2021/01/30 02:01:46;;;;;;;9.00;4.73;;;3.10;99.90;;;;;;5010616;28;36452;-74
2021/01/30 02:04:14;;;;;;;10.47;4.80;;;3.10;99.90;;;;;;5023628;28;39803;-73
2021/01/30 02:06:44;;;;;;;9.67;5.67;;;3.10;99.90;;;;;;5003958;28;38440;-75
2021/01/30 02:09:14;;;;;;;8.37;4.27;;;3.10;99.90;;;;;;5006550;28;39104;-74
2021/01/30 02:11:41;;;;;;;8.20;4.50;;;3.10;99.90;;;;;;5005436;28;38834;-71
2021/01/30 02:14:10;;;;;;;6.80;4.33;;;3.00;99.90;;;;;;5020153;28;36275;-73
2021/01/30 02:16:35;;;;;;;7.53;4.67;;;2.90;99.90;;;;;;5025635;28;38758;-74
2021/01/30 02:19:38;;;;;;;7.00;3.67;;;2.90;99.90;;;;;;5021326;28;38861;-73
2021/01/30 02:22:42;;;;;;;6.60;3.50;;;2.80;99.90;;;;;;5035308;28;37982;-76
2021/01/30 02:25:39;;;;;;;6.80;3.90;;;2.70;99.90;;;;;;5010705;28;38987;-73
2021/01/30 02:28:25;;;;;;;9.27;3.73;;;2.60;99.90;;;;;;5017858;28;38121;-73
2021/01/30 02:31:21;;;;;;;6.47;4.13;;;2.50;99.90;;;;;;5020735;28;38647;-73
2021/01/30 02:33:59;;;;;;;7.93;4.23;;;2.50;99.90;;;;;;5006232;28;47358;-74
2021/01/30 02:37:02;;;;;;;7.77;4.80;;;2.50;99.90;;;;;;5015678;28;40581;-72
2021/01/30 02:39:51;;;;;;;8.13;5.00;;;2.50;99.90;;;;;;4995591;28;48220;-73
2021/01/30 02:42:26;;;;;;;6.83;3.90;;;2.50;99.90;;;;;;5022149;28;38694;-74
2021/01/30 02:44:57;;;;;;;4.73;4.10;;;2.50;99.90;;;;;;5011529;28;37992;-73
2021/01/30 02:47:27;;;;;;;7.63;4.03;;;2.50;99.90;;;;;;5027997;28;39013;-72
2021/01/30 02:50:07;;;;;;;5.93;4.27;;;2.40;99.90;;;;;;5012889;28;38141;-73
2021/01/30 02:52:35;;;;;;;4.97;3.73;;;2.40;99.90;;;;;;5010448;28;47936;-74
2021/01/30 02:55:03;;;;;;;6.13;4.30;;;2.40;99.90;;;;;;5023937;28;37290;-73
2021/01/30 02:57:30;;;;;;;8.57;4.70;;;2.40;99.90;;;;;;5014580;28;39477;-73
2021/01/30 03:00:00;;;;;;;8.63;5.10;;;2.30;99.90;;;;;;5030533;28;39085;-72
2021/01/30 03:02:27;;;;;;;9.47;5.37;;;2.30;99.90;;;;;;5030089;28;36310;-73
2021/01/30 03:04:56;;;;;;;5.87;5.27;;;2.40;99.90;;;;;;5035704;28;36537;-71
2021/01/30 03:07:40;;;;;;;7.23;5.33;;;2.40;99.90;;;;;;5021639;28;37312;-73
2021/01/30 03:10:14;;;;;;;7.13;5.37;;;2.30;99.90;;;;;;5020331;28;39166;-73
2021/01/30 03:13:05;;;;;;;8.80;5.23;;;2.40;99.90;;;;;;5020604;28;47141;-74
2021/01/30 03:15:39;;;;;;;8.80;5.90;;;2.40;99.90;;;;;;5049559;28;47161;-74
2021/01/30 03:18:07;;;;;;;6.87;5.90;;;2.30;99.90;;;;;;5049910;28;40741;-73
2021/01/30 03:20:39;;;;;;;7.53;6.63;;;2.30;99.90;;;;;;5036210;28;38550;-72
2021/01/30 03:23:05;;;;;;;9.17;6.63;;;2.30;99.90;;;;;;5037741;28;38453;-74
2021/01/30 03:25:33;;;;;;;8.30;7.40;;;2.30;99.90;;;;;;5030396;28;37986;-73
2021/01/30 03:28:01;;;;;;;7.37;6.30;;;2.30;99.90;;;;;;5038944;28;37633;-74
2021/01/30 03:30:29;;;;;;;6.90;6.20;;;2.20;99.90;;;;;;5031338;28;47939;-74
2021/01/30 03:32:55;;;;;;;10.20;7.20;;;2.20;99.90;;;;;;5031999;27;38920;-74
2021/01/30 03:35:22;;;;;;;8.30;6.93;;;2.20;99.90;;;;;;5034990;28;36068;-74
2021/01/30 03:37:48;;;;;;;7.50;6.70;;;2.20;99.90;;;;;;5066830;28;40374;-74
2021/01/30 03:40:18;;;;;;;6.27;5.63;;;2.20;99.90;;;;;;5043114;28;39138;-74
2021/01/30 03:42:44;;;;;;;9.37;5.30;;;2.10;99.90;;;;;;5063029;28;38684;-73
2021/01/30 03:45:14;;;;;;;8.77;6.10;;;2.10;99.90;;;;;;5029576;28;36959;-73
2021/01/30 03:47:40;;;;;;;7.30;6.23;;;2.10;99.90;;;;;;5031354;28;36756;-74
2021/01/30 03:50:08;;;;;;;7.20;6.50;;;2.10;99.90;;;;;;5028603;28;38827;-73
2021/01/30 03:52:35;;;;;;;7.70;6.33;;;2.00;99.90;;;;;;5045270;28;37958;-74
2021/01/30 03:55:01;;;;;;;7.87;6.77;;;1.90;99.90;;;;;;5021180;28;37465;-74
2021/01/30 03:57:27;;;;;;;8.77;7.07;;;1.80;99.90;;;;;;5025472;28;42554;-74
2021/01/30 03:59:53;;;;;;;8.90;7.50;;;1.80;99.90;;;;;;5035705;28;38977;-73
2021/01/30 04:02:19;;;;;;;10.10;8.47;;;1.80;99.90;;;;;;5029643;28;37895;-74
2021/01/30 04:04:46;;;;;;;9.80;8.60;;;1.70;99.90;;;;;;5032740;27;37610;-74
2021/01/30 04:07:13;;;;;;;9.70;8.70;;;1.70;99.90;;;;;;5035039;28;38528;-74
2021/01/30 04:09:40;;;;;;;11.37;9.77;;;1.70;99.90;;;;;;5062444;28;38787;-75
2021/01/30 04:12:06;;;;;;;10.70;8.73;;;1.70;99.90;;;;;;5061876;28;38708;-74
2021/01/30 04:14:33;;;;;;;11.57;10.00;;;1.70;99.90;;;;;;5029011;27;36493;-74
2021/01/30 04:16:59;;;;;;;10.97;9.70;;;1.70;99.90;;;;;;5059553;28;39223;-73
2021/01/30 04:19:25;;;;;;;10.63;9.13;;;1.70;99.90;;;;;;5022148;28;37799;-74
2021/01/30 04:21:51;;;;;;;11.20;9.20;;;1.70;99.90;;;;;;5016112;28;36909;-75
2021/01/30 04:24:17;;;;;;;12.77;9.87;;;1.60;99.90;;;;;;5008814;28;37377;-74
2021/01/30 04:26:47;;;;;;;12.67;10.33;;;1.60;99.90;;;;;;5006170;28;38446;-73
2021/01/30 04:29:15;;;;;;;12.37;10.33;;;1.60;99.90;;;;;;5007700;28;40112;-73
2021/01/30 04:31:41;;;;;;;14.40;10.90;;;1.60;99.90;;;;;;5016237;28;37503;-74
2021/01/30 04:34:07;;;;;;;12.53;11.23;;;1.60;99.90;;;;;;5007732;28;37535;-74
2021/01/30 04:36:33;;;;;;;13.33;11.63;;;1.60;99.90;;;;;;5005893;28;39853;-74
2021/01/30 04:38:59;;;;;;;12.53;11.20;;;1.60;99.90;;;;;;5007213;28;39128;-75
2021/01/30 04:41:35;;;;;;;13.03;11.63;;;1.60;99.90;;;;;;5004889;28;37786;-74
2021/01/30 04:44:29;;;;;;;14.03;12.53;;;1.60;99.90;;;;;;5008106;28;36387;-74
2021/01/30 04:47:21;;;;;;;13.40;11.10;;;1.60;99.90;;;;;;5005875;28;49328;-74
2021/01/30 04:50:11;;;;;;;15.87;12.47;;;1.50;99.90;;;;;;5003904;28;49669;-74
2021/01/30 04:53:02;;;;;;;14.03;12.10;;;1.50;99.90;;;;;;5006939;28;48010;-74
2021/01/30 04:55:50;;;;;;;16.50;13.70;;;1.50;99.90;;;;;;5004389;28;47810;-74
2021/01/30 04:58:34;;;;;;;15.57;13.77;;;1.50;99.90;;;;;;5009066;28;41173;-74
2021/01/30 05:01:17;;;;;;;18.23;13.17;;;1.50;99.90;;;;;;5005208;28;37134;-74
2021/01/30 05:04:08;;;;;;;15.67;12.03;;;1.50;99.90;;;;;;5002655;28;47531;-74
2021/01/30 05:07:12;;;;;;;14.30;12.60;;;1.50;99.90;;;;;;4999992;28;48357;-73
2021/01/30 05:09:52;;;;;;;15.00;12.27;;;1.40;99.90;;;;;;5019875;28;47137;-74
2021/01/30 05:12:31;;;;;;;13.00;11.53;;;1.50;99.90;;;;;;5038363;28;40694;-74
2021/01/30 05:15:11;;;;;;;14.33;12.63;;;1.50;99.90;;;;;;5044718;28;38104;-73
2021/01/30 05:18:09;;;;;;;14.27;11.70;;;1.50;99.90;;;;;;5035723;28;48045;-73
2021/01/30 05:20:38;;;;;;;13.53;11.63;;;1.50;99.90;;;;;;5019540;28;48212;-74
2021/01/30 05:23:06;;;;;;;14.30;11.90;;;1.50;99.90;;;;;;5048210;28;39585;-74
2021/01/30 05:25:33;;;;;;;17.87;12.00;;;1.40;99.90;;;;;;5046252;28;39573;-73
2021/01/30 05:28:32;;;;;;;14.10;12.03;;;1.50;99.90;;;;;;5022307;28;37653;-74
2021/01/30 05:31:27;;;;;;;14.90;12.00;;;1.40;99.90;;;;;;5026318;28;47246;-74
2021/01/30 05:34:06;;;;;;;13.93;11.47;;;1.40;99.90;;;;;;5049445;28;48382;-73
2021/01/30 05:36:50;;;;;;;13.60;11.47;;;1.40;99.90;;;;;;5025579;28;48576;-74
2021/01/30 05:39:48;;;;;;;12.47;11.03;;;1.40;99.90;;;;;;5016653;28;39249;-74
2021/01/30 05:42:28;;;;;;;13.00;11.57;;;1.40;99.90;;;;;;5026781;28;39165;-74
2021/01/30 05:45:12;;;;;;;13.00;11.50;;;1.40;99.90;;;;;;5042496;28;38931;-74
2021/01/30 05:47:38;;;;;;;14.77;12.37;;;1.40;99.90;;;;;;5043921;28;47231;-74
2021/01/30 05:50:28;;;;;;;14.47;12.00;;;1.40;99.90;;;;;;5033684;28;37634;-74
2021/01/30 05:52:55;;;;;;;15.07;12.90;;;1.40;99.90;;;;;;5032638;28;40319;-74
2021/01/30 05:55:29;;;;;;;15.27;12.67;;;1.40;99.90;;;;;;5035795;27;39962;-74
2021/01/30 05:57:57;;;;;;;13.80;12.30;;;1.50;99.90;;;;;;5041687;27;38940;-74
2021/01/30 06:00:25;;;;;;;12.03;10.60;;;1.50;99.90;;;;;;5014748;28;39178;-73
2021/01/30 06:03:13;;;;;;;12.20;10.60;;;1.50;99.90;;;;;;5019217;28;39558;-74
2021/01/30 06:05:51;;;;;;;11.07;9.97;;;1.50;99.90;;;;;;5022266;28;46902;-74
2021/01/30 06:08:53;;;;;;;12.30;10.33;;;1.50;99.90;;;;;;5012673;28;38072;-74
2021/01/30 06:11:19;;;;;;;10.83;8.67;;;1.50;99.90;;;;;;5020348;28;37703;-74
2021/01/30 06:13:56;;;;;;;10.10;9.00;;;1.40;99.90;;;;;;5019602;28;40402;-76
2021/01/30 06:16:42;;;;;;;10.07;8.97;;;1.40;99.90;;;;;;5036581;28;39014;-74
2021/01/30 06:19:33;;;;;;;8.73;7.83;;;1.40;99.90;;;;;;5015490;28;38509;-73
2021/01/30 06:22:15;;;;;;;9.13;7.70;;;1.40;99.90;;;;;;5023033;28;37205;-74
2021/01/30 06:24:44;;;;;;;9.37;7.80;;;1.40;99.90;;;;;;5009583;28;49888;-74
2021/01/30 06:27:38;;;;;;;9.67;8.33;;;1.30;99.90;;;;;;5023203;28;38998;-74
2021/01/30 06:30:09;;;;;;;9.80;8.60;;;1.30;99.90;;;;;;5026398;28;38543;-74
2021/01/30 06:32:38;;;;;;;9.73;8.73;;;1.30;99.90;;;;;;5012118;28;38496;-74
2021/01/30 06:35:04;;;;;;;9.57;8.13;;;1.30;99.90;;;;;;5011542;28;38997;-74
2021/01/30 06:37:54;;;;;;;9.07;7.67;;;1.30;99.90;;;;;;5015578;28;38179;-74
2021/01/30 06:40:36;;;;;;;8.90;7.40;;;1.30;99.90;;;;;;5009248;28;38838;-74
2021/01/30 06:43:25;;;;;;;11.07;7.38;;;1.30;99.90;;;;;;5017082;28;38914;-72
2021/01/30 06:46:03;;;;;;;8.87;7.97;;;1.30;99.90;;;;;;5015740;28;39392;-73
2021/01/30 06:48:38;;;;;;;8.93;7.10;;;1.30;99.90;;;;;;5015620;28;49017;-73
2021/01/30 06:51:21;;;;;;;8.77;7.87;;;1.30;99.90;;;;;;5015737;28;37765;-73
2021/01/30 06:53:47;;;;;;;9.23;7.70;;;1.30;99.90;;;;;;5011218;28;37506;-72
2021/01/30 06:56:21;;;;;;;8.97;7.67;;;1.30;99.90;;;;;;5006324;28;39571;-72
2021/01/30 06:58:48;;;;;;;9.40;7.87;;;1.30;99.90;;;;;;5009111;28;39893;-73
2021/01/30 07:01:23;;;;;;;9.10;7.90;;;1.30;99.90;;;;;;5025913;28;38757;-75
2021/01/30 07:04:09;;;;;;;8.13;7.10;;;1.30;99.90;;;;;;5012087;28;38960;-73
2021/01/30 07:06:56;;;;;;;10.70;8.57;;;1.30;99.90;;;;;;5004787;28;47154;-73
2021/01/30 07:09:28;;;;;;;9.80;8.10;;;1.30;99.90;;;;;;5005449;28;38892;-73
2021/01/30 07:12:09;;;;;;;10.70;8.52;;;1.30;99.90;;;;;;5009957;28;37568;-74
2021/01/30 07:15:08;;;;;;;9.67;7.93;;;1.30;99.90;;;;;;5006541;28;48338;-75
2021/01/30 07:17:52;;;;;;;10.57;8.67;;;1.30;99.90;;;;;;5004303;28;49286;-74
2021/01/30 07:20:46;;;;;;;9.03;7.73;;;1.30;99.90;;;;;;5017980;28;39128;-76
2021/01/30 07:23:14;;;;;;;8.63;7.20;;;1.30;99.90;;;;;;5016724;28;41413;-74
2021/01/30 07:25:54;;;;;;;9.63;6.97;;;1.30;99.90;;;;;;5013659;28;37584;-74
2021/01/30 07:28:30;;;;;;;8.83;7.17;;;1.30;99.90;;;;;;5008978;28;40522;-74
2021/01/30 07:31:09;;;;;;;8.03;6.77;;;1.30;99.90;;;;;;5024520;28;39839;-74
2021/01/30 07:33:49;;;;;;;9.30;7.93;;;1.30;99.90;;;;;;5004109;28;48952;-75
2021/01/30 07:36:22;;;;;;;9.20;7.27;;;1.20;99.90;;;;;;5004712;28;36883;-74
2021/01/30 07:39:12;;;;;;;9.57;7.07;;;1.20;99.90;;;;;;5009286;28;38760;-72
2021/01/30 07:42:12;;;;;;;10.30;7.23;;;1.30;99.90;;;;;;5019390;28;47697;-72
2021/01/30 07:44:47;;;;;;;10.77;8.23;;;1.20;99.90;;;;;;5001347;28;47098;-73
2021/01/30 07:47:25;;;;;;;10.70;8.57;;;1.20;99.90;;;;;;5036290;28;35924;-71
2021/01/30 07:49:59;;;;;;;9.23;7.70;;;1.20;99.90;;;;;;5025948;28;38688;-73
2021/01/30 07:52:30;;;;;;;10.13;7.10;;;1.20;99.90;;;;;;5015580;28;40430;-73
2021/01/30 07:54:59;;;;;;;9.23;7.83;;;1.20;99.90;;;;;;5016971;28;37936;-75
2021/01/30 07:57:34;;;;;;;9.17;7.37;;;1.20;99.90;;;;;;5047358;28;37756;-73
2021/01/30 08:00:29;;;;;;;9.17;7.50;;;1.10;99.90;;;;;;5022948;28;39082;-75
2021/01/30 08:03:42;;;;;;;7.80;6.70;;;1.10;99.90;;;;;;5014935;28;48414;-72
2021/01/30 08:06:35;;;;;;;11.60;7.40;;;1.00;99.90;;;;;;5052892;28;47357;-73
2021/01/30 08:09:01;;;;;;;;;;;1.10;99.90;;;;;;5019207;28;38134;-72
2021/01/30 08:11:32;;;;;;;8.70;6.70;;;1.10;99.90;;;;;;5051215;28;37919;-73
2021/01/30 08:14:13;;;;;;;9.03;6.87;;;1.10;99.90;;;;;;5069205;28;40012;-74
2021/01/30 08:16:55;;;;;;;8.57;7.30;;;1.20;99.90;;;;;;5041778;28;47146;-76
2021/01/30 08:19:53;;;;;;;8.87;7.20;;;1.20;99.90;;;;;;5035816;28;36031;-74
2021/01/30 08:22:30;;;;;;;8.83;7.50;;;1.20;99.90;;;;;;5017153;28;39665;-73
2021/01/30 08:25:22;;;;;;;8.63;7.63;;;1.10;99.90;;;;;;5020095;28;39160;-74
2021/01/30 08:27:58;;;;;;;9.23;7.70;;;1.10;99.90;;;;;;5042071;28;48899;-72
2021/01/30 08:30:25;;;;;;;9.47;7.30;;;1.20;99.90;;;;;;5041828;28;37064;-74
2021/01/30 08:32:59;;;;;;;8.43;7.03;;;1.20;99.90;;;;;;5040093;28;38638;-73
2021/01/30 08:35:24;;;;;;;9.27;6.97;;;1.20;99.90;;;;;;5045961;28;38607;-76
2021/01/30 08:38:09;;;;;;;7.80;7.00;;;1.20;99.90;;;;;;5060965;28;37421;-74
2021/01/30 08:40:52;;;;;;;11.17;7.40;;;1.20;99.90;;;;;;5032387;28;47568;-74
2021/01/30 08:44:01;;;;;;;8.88;7.10;;;1.30;99.90;;;;;;5068117;28;40906;-73
2021/01/30 08:46:38;;;;;;;9.50;6.50;;;1.30;99.90;;;;;;5035791;28;47062;-73
2021/01/30 08:49:13;;;;;;;7.83;6.23;;;1.30;99.90;;;;;;5056691;28;39722;-73
2021/01/30 08:51:44;;;;;;;7.10;6.23;;;1.30;99.90;;;;;;5056148;28;38007;-74
2021/01/30 08:54:40;;;;;;;8.03;6.67;;;1.30;99.90;;;;;;5034106;28;39201;-73
2021/01/30 08:57:31;;;;;;;10.80;7.50;;;1.30;99.90;;;;;;5032793;28;38344;-74
2021/01/30 08:59:59;;;;;;;9.33;7.23;;;1.40;99.90;;;;;;5032946;28;39183;-73
2021/01/30 09:02:28;;;;;;;9.27;7.03;;;1.50;99.90;;;;;;5035944;28;38117;-74
2021/01/30 09:05:07;;;;;;;6.97;5.97;;;1.60;99.90;;;;;;5049681;28;39255;-74
2021/01/30 09:07:49;;;;;;;8.00;7.00;;;1.60;99.90;;;;;;5044221;28;48734;-76
2021/01/30 09:10:22;;;;;;;11.27;6.63;;;1.60;99.90;;;;;;5036608;28;38904;-74
2021/01/30 09:13:04;;;;;;;9.38;7.47;;;1.70;99.90;;;;;;5044668;28;38574;-74
2021/01/30 09:15:43;;;;;;;8.20;7.03;;;1.70;99.90;;;;;;5067833;28;47690;-74
2021/01/30 09:18:18;;;;;;;7.77;6.97;;;1.80;99.90;;;;;;5036176;28;38079;-74
2021/01/30 09:20:50;;;;;;;7.80;6.60;;;1.80;99.90;;;;;;5038932;28;38179;-72
2021/01/30 09:23:30;;;;;;;8.10;7.13;;;1.90;99.90;;;;;;5039390;28;37285;-73
2021/01/30 09:26:32;;;;;;;11.00;7.33;;;1.90;99.90;;;;;;5039799;28;40591;-73
2021/01/30 09:29:01;;;;;;;8.27;6.37;;;1.90;99.90;;;;;;5008276;28;47462;-73
2021/01/30 09:31:28;;;;;;;7.10;6.40;;;2.00;99.90;;;;;;5016781;28;49532;-73
2021/01/30 09:34:17;;;;;;;7.67;6.57;;;1.90;99.90;;;;;;5020478;28;38296;-74
2021/01/30 09:36:49;;;;;;;6.87;6.17;;;1.90;99.90;;;;;;5013165;28;48285;-74
2021/01/30 09:39:26;;;;;;;6.83;6.03;;;2.10;99.90;;;;;;5016730;28;38699;-74
2021/01/30 09:42:17;;;;;;;6.80;6.03;;;2.10;99.90;;;;;;5024234;28;39254;-74
2021/01/30 09:44:44;;;;;;;7.17;5.60;;;2.20;99.90;;;;;;5045604;28;49530;-73
2021/01/30 09:47:21;;;;;;;6.30;5.40;;;2.10;99.90;;;;;;5016139;28;38868;-74
2021/01/30 09:49:54;;;;;;;6.20;5.60;;;2.10;99.90;;;;;;5018143;28;37560;-74
2021/01/30 09:52:21;;;;;;;6.63;5.70;;;2.00;99.90;;;;;;5036573;28;38661;-74
2021/01/30 09:54:56;;;;;;;10.20;5.20;;;2.00;99.90;;;;;;5025290;28;38176;-75
2021/01/30 09:57:25;;;;;;;7.77;5.70;;;2.00;99.90;;;;;;5048972;28;38762;-74
2021/01/30 10:00:08;;;;;;;5.80;5.20;;;2.10;99.90;;;;;;5021050;28;38303;-74
2021/01/30 10:02:34;;;;;;;5.28;4.38;;;2.00;99.90;;;;;;5008856;28;47016;-74
2021/01/30 10:05:06;;;;;;;6.60;5.17;;;1.90;99.90;;;;;;5015066;28;37407;-74
2021/01/30 10:07:33;;;;;;;6.15;5.20;;;2.00;99.90;;;;;;5043540;28;46998;-74
2021/01/30 10:10:00;;;;;;;7.83;6.17;;;2.00;99.90;;;;;;5040822;28;39852;-74
2021/01/30 10:12:26;;;;;;;6.50;5.77;;;2.00;99.90;;;;;;5036673;28;38078;-74
2021/01/30 10:14:55;;;;;;;6.80;5.87;;;2.10;99.90;;;;;;5039927;28;37333;-73
2021/01/30 10:17:27;;;;;;;7.63;6.33;;;2.20;99.90;;;;;;5060958;28;39053;-73
2021/01/30 10:20:20;;;;;;;10.57;7.37;;;2.10;99.90;;;;;;5028411;28;39432;-75
2021/01/30 10:22:48;;;;;;;8.43;6.15;;;2.00;99.90;;;;;;5010793;28;48704;-73
2021/01/30 10:25:22;;;;;;;7.90;6.50;;;1.90;99.90;;;;;;5039547;28;37806;-76
2021/01/30 10:27:48;;;;;;;8.80;6.83;;;1.80;99.90;;;;;;5049712;28;39540;-73
2021/01/30 10:30:17;;;;;;;7.03;6.33;;;1.80;99.90;;;;;;5049516;28;39767;-73
2021/01/30 10:32:54;;;;;;;8.00;6.77;;;1.80;99.90;;;;;;5038900;28;39654;-75
2021/01/30 10:35:33;;;;;;;8.57;6.73;;;1.80;99.90;;;;;;5035815;28;36939;-73
2021/01/30 10:38:12;;;;;;;12.40;7.33;;;1.90;99.90;;;;;;5042046;28;36932;-73
2021/01/30 10:40:59;;;;;;;8.10;6.67;;;1.90;99.90;;;;;;5063468;28;47951;-73
2021/01/30 10:43:30;;;;;;;9.00;6.90;;;2.00;99.90;;;;;;5015631;28;39031;-73
2021/01/30 10:46:04;;;;;;;11.27;7.20;;;2.20;99.90;;;;;;5042586;28;38013;-73
2021/01/30 10:48:33;;;;;;;8.27;6.73;;;2.30;99.90;;;;;;5037753;28;46806;-74
2021/01/30 10:51:11;;;;;;;8.10;7.23;;;2.40;99.90;;;;;;5024567;28;38329;-74
2021/01/30 10:53:40;;;;;;;9.67;7.00;;;2.30;99.90;;;;;;5037185;28;47073;-75
2021/01/30 10:56:22;;;;;;;9.97;7.87;;;2.40;99.90;;;;;;5023052;28;37378;-74
2021/01/30 10:58:50;;;;;;;8.07;7.00;;;2.40;99.90;;;;;;5016310;28;39546;-74
2021/01/30 11:01:19;;;;;;;7.60;6.80;;;2.40;99.90;;;;;;5019266;28;37733;-74
2021/01/30 11:03:57;;;;;;;7.93;6.77;;;2.40;99.90;;;;;;5022629;28;38372;-76
2021/01/30 11:06:41;;;;;;;7.87;6.73;;;2.50;99.90;;;;;;5023833;28;39268;-74
2021/01/30 11:09:33;;;;;;;8.33;6.57;;;2.40;99.90;;;;;;5017820;28;39736;-76
2021/01/30 11:12:18;;;;;;;8.75;7.55;;;2.60;99.90;;;;;;5033373;28;40021;-74
2021/01/30 11:14:45;;;;;;;8.30;7.37;;;2.70;99.90;;;;;;5035596;28;47050;-73
2021/01/30 11:17:31;;;;;;;8.03;7.00;;;2.60;99.90;;;;;;5020787;28;37872;-74
2021/01/30 11:19:58;;;;;;;7.93;7.07;;;2.50;99.90;;;;;;5015960;28;39519;-74
2021/01/30 11:22:26;;;;;;;7.43;6.37;;;2.50;99.90;;;;;;5023006;27;38396;-73
2021/01/30 11:25:13;;;;;;;7.50;6.70;;;2.40;99.90;;;;;;5051859;28;38644;-73
2021/01/30 11:27:45;;;;;;;8.97;7.97;;;2.50;99.90;;;;;;5016211;28;46991;-73
2021/01/30 11:30:15;;;;;;;10.77;8.05;;;2.50;99.90;;;;;;5060761;28;39884;-73
2021/01/30 11:32:50;;;;;;;8.47;7.07;;;2.50;99.90;;;;;;5028197;28;39119;-73
2021/01/30 11:35:33;;;;;;;8.20;7.07;;;2.50;99.90;;;;;;5040458;28;39022;-72
2021/01/30 11:38:18;;;;;;;7.97;7.07;;;2.60;99.90;;;;;;5060616;28;38045;-73
2021/01/30 11:40:46;;;;;;;9.00;6.50;;;2.60;99.90;;;;;;5077195;28;46846;-72
2021/01/30 11:43:13;;;;;;;8.57;6.90;;;2.50;99.90;;;;;;5050320;28;39332;-72
2021/01/30 11:45:39;;;;;;;8.60;7.60;;;2.70;99.90;;;;;;5048186;28;38951;-74
2021/01/30 11:48:06;;;;;;;8.70;7.37;;;2.70;99.90;;;;;;5038257;28;39009;-73
2021/01/30 11:50:32;;;;;;;9.27;7.03;;;2.80;99.90;;;;;;5051015;28;39041;-75
2021/01/30 11:53:05;;;;;;;7.93;7.07;;;2.90;99.90;;;;;;5039876;28;39165;-74
2021/01/30 11:55:31;;;;;;;9.07;7.13;;;3.00;99.90;;;;;;5039724;28;47057;-74
2021/01/30 11:57:57;;;;;;;8.40;7.50;;;3.00;99.90;;;;;;5045516;27;37364;-73
2021/01/30 12:00:23;;;;;;;7.57;6.77;;;2.90;99.90;;;;;;5036891;28;39676;-73
2021/01/30 12:02:50;;;;;;;9.80;7.37;;;3.00;99.90;;;;;;5038319;28;37223;-74
2021/01/30 12:05:16;;;;;;;8.90;7.00;;;2.90;99.90;;;;;;5035376;28;37003;-75
2021/01/30 12:07:42;;;;;;;9.23;7.50;;;2.90;99.90;;;;;;5049182;28;37614;-74
2021/01/30 12:10:09;;;;;;;7.60;6.80;;;2.80;99.90;;;;;;5034083;28;36968;-73
2021/01/30 12:12:35;;;;;;;10.40;6.83;;;2.80;99.90;;;;;;5036443;28;39680;-71
2021/01/30 12:15:01;;;;;;;10.50;7.63;;;2.80;99.90;;;;;;5033671;28;38622;-74
2021/01/30 12:17:30;;;;;;;8.37;7.47;;;2.90;99.90;;;;;;5048970;28;37674;-75
2021/01/30 12:19:56;;;;;;;10.67;8.00;;;2.90;99.90;;;;;;5040838;28;38677;-74
2021/01/30 12:22:22;;;;;;;10.27;7.10;;;2.90;99.90;;;;;;5043747;28;38519;-75
2021/01/30 12:24:49;;;;;;;8.83;6.53;;;2.90;99.90;;;;;;5079999;28;39086;-75
2021/01/30 12:27:16;;;;;;;7.20;6.37;;;2.90;99.90;;;;;;5035883;28;37528;-75
2021/01/30 12:29:44;;;;;;;8.17;5.97;;;2.90;99.90;;;;;;5035642;28;38658;-74
2021/01/30 12:32:11;;;;;;;6.53;5.83;;;2.90;99.90;;;;;;5043438;28;38452;-73
2021/01/30 12:34:37;;;;;;;8.13;6.63;;;2.80;99.90;;;;;;5037798;28;38590;-73
2021/01/30 12:37:05;;;;;;;6.97;6.20;;;2.90;99.90;;;;;;5045430;28;36821;-73
2021/01/30 12:39:31;;;;;;;6.40;5.70;;;3.20;99.90;;;;;;5026693;28;39876;-73
2021/01/30 12:41:57;;;;;;;7.63;6.40;;;3.20;99.90;;;;;;5064107;28;38981;-74
2021/01/30 12:44:24;;;;;;;10.30;6.70;;;3.30;99.90;;;;;;5047003;28;38866;-75
2021/01/30 12:46:51;;;;;;;6.40;5.63;;;3.50;99.90;;;;;;5035955;28;39104;-74
2021/01/30 12:49:19;;;;;;;8.50;6.47;;;3.50;99.90;;;;;;5035840;28;38616;-75
2021/01/30 12:51:46;;;;;;;6.53;5.83;;;3.50;99.90;;;;;;5071280;28;38051;-77
2021/01/30 12:54:16;;;;;;;9.03;6.17;;;3.40;99.90;;;;;;5039101;28;37845;-75
2021/01/30 12:56:42;;;;;;;6.17;5.57;;;3.30;99.90;;;;;;5036924;28;39368;-74
2021/01/30 12:59:08;;;;;;;7.83;5.97;;;3.30;99.90;;;;;;5034976;28;39425;-78
2021/01/30 13:01:34;;;;;;;6.67;5.97;;;3.20;99.90;;;;;;5045721;28;39128;-77
2021/01/30 13:04:00;;;;;;;6.33;5.43;;;3.20;99.90;;;;;;5045963;28;38852;-76
2021/01/30 13:06:26;;;;;;;6.47;5.80;;;3.20;99.90;;;;;;5069732;28;38977;-73
2021/01/30 13:08:52;;;;;;;6.07;5.47;;;3.20;99.90;;;;;;5041832;28;42312;-75
2021/01/30 13:11:18;;;;;;;6.73;5.53;;;3.20;99.90;;;;;;5033195;28;38503;-75
2021/01/30 13:13:44;;;;;;;6.43;5.50;;;3.20;99.90;;;;;;5037797;28;38116;-75
2021/01/30 13:16:11;;;;;;;6.37;5.77;;;3.20;99.90;;;;;;5038900;28;37076;-76
2021/01/30 13:18:38;;;;;;;7.20;5.57;;;3.20;99.90;;;;;;5038058;27;38800;-76
2021/01/30 13:21:06;;;;;;;6.63;5.50;;;3.20;99.90;;;;;;5035285;27;38362;-76
2021/01/30 13:23:33;;;;;;;7.83;5.43;;;3.20;99.90;;;;;;5064512;28;37736;-75
2021/01/30 13:26:01;;;;;;;7.67;5.37;;;3.20;99.90;;;;;;5049875;28;38005;-75
2021/01/30 13:28:27;;;;;;;5.53;4.97;;;3.30;99.90;;;;;;5041484;28;47804;-75